sensor_id;sensor_type;location;lat;lon;timestamp;temperature;humidity
4107;DHT22;21906;50.812;7.132;2023-05-14T00:01:56;13.20;78.60
4107;DHT22;21906;50.812;7.132;2023-05-14T00:04:22;13.10;78.60
4107;DHT22;21906;50.812;7.132;2023-05-14T00:06:48;13.20;78.60
4107;DHT22;21906;50.812;7.132;2023-05-14T00:09:14;13.10;78.60
4107;DHT22;21906;50.812;7.132;2023-05-14T00:11:39;13.10;78.50
4107;DHT22;21906;50.812;7.132;2023-05-14T00:14:05;13.20;78.40
4107;DHT22;21906;50.812;7.132;2023-05-14T00:16:30;13.10;78.50
4107;DHT22;21906;50.812;7.132;2023-05-14T00:18:56;13.00;78.30
4107;DHT22;21906;50.812;7.132;2023-05-14T00:21:22;13.00;78.30
4107;DHT22;21906;50.812;7.132;2023-05-14T00:23:47;12.90;78.20
4107;DHT22;21906;50.812;7.132;2023-05-14T00:26:13;12.90;78.40
4107;DHT22;21906;50.812;7.132;2023-05-14T00:28:39;12.90;78.50
4107;DHT22;21906;50.812;7.132;2023-05-14T00:31:04;12.90;78.60
4107;DHT22;21906;50.812;7.132;2023-05-14T00:33:30;12.80;78.60
4107;DHT22;21906;50.812;7.132;2023-05-14T00:35:55;12.90;78.50
4107;DHT22;21906;50.812;7.132;2023-05-14T00:38:21;12.80;78.30
4107;DHT22;21906;50.812;7.132;2023-05-14T00:40:48;12.70;78.30
4107;DHT22;21906;50.812;7.132;2023-05-14T00:43:20;12.70;78.20
4107;DHT22;21906;50.812;7.132;2023-05-14T00:45:50;12.70;78.20
4107;DHT22;21906;50.812;7.132;2023-05-14T00:48:16;12.70;78.10
4107;DHT22;21906;50.812;7.132;2023-05-14T00:50:42;12.70;78.20
4107;DHT22;21906;50.812;7.132;2023-05-14T00:53:08;12.70;78.20
4107;DHT22;21906;50.812;7.132;2023-05-14T00:55:39;12.70;78.10
4107;DHT22;21906;50.812;7.132;2023-05-14T00:58:08;12.60;78.10
4107;DHT22;21906;50.812;7.132;2023-05-14T01:00:35;12.60;78.10
4107;DHT22;21906;50.812;7.132;2023-05-14T01:03:02;12.60;78.10
4107;DHT22;21906;50.812;7.132;2023-05-14T01:05:50;12.60;77.90
4107;DHT22;21906;50.812;7.132;2023-05-14T01:08:39;12.50;78.10
4107;DHT22;21906;50.812;7.132;2023-05-14T01:11:12;12.50;78.10
4107;DHT22;21906;50.812;7.132;2023-05-14T01:16:12;12.50;78.10
4107;DHT22;21906;50.812;7.132;2023-05-14T01:18:39;12.50;78.00
4107;DHT22;21906;50.812;7.132;2023-05-14T01:21:33;12.50;77.90
4107;DHT22;21906;50.812;7.132;2023-05-14T01:24:01;12.50;78.00
4107;DHT22;21906;50.812;7.132;2023-05-14T01:26:26;12.40;78.10
4107;DHT22;21906;50.812;7.132;2023-05-14T01:28:58;12.40;78.10
4107;DHT22;21906;50.812;7.132;2023-05-14T01:31:26;12.40;77.90
4107;DHT22;21906;50.812;7.132;2023-05-14T01:33:53;12.30;78.10
4107;DHT22;21906;50.812;7.132;2023-05-14T01:36:21;12.30;78.20
4107;DHT22;21906;50.812;7.132;2023-05-14T01:38:48;12.20;78.20
4107;DHT22;21906;50.812;7.132;2023-05-14T01:44:32;12.20;78.20
4107;DHT22;21906;50.812;7.132;2023-05-14T01:46:58;12.20;77.90
4107;DHT22;21906;50.812;7.132;2023-05-14T01:49:24;12.20;77.80
4107;DHT22;21906;50.812;7.132;2023-05-14T01:51:50;12.20;77.80
4107;DHT22;21906;50.812;7.132;2023-05-14T01:54:15;12.10;77.70
4107;DHT22;21906;50.812;7.132;2023-05-14T01:56:41;12.10;77.70
4107;DHT22;21906;50.812;7.132;2023-05-14T01:59:07;12.10;77.70
4107;DHT22;21906;50.812;7.132;2023-05-14T02:01:32;12.10;77.80
4107;DHT22;21906;50.812;7.132;2023-05-14T02:03:58;12.00;77.80
4107;DHT22;21906;50.812;7.132;2023-05-14T02:06:25;12.00;77.80
4107;DHT22;21906;50.812;7.132;2023-05-14T02:08:51;12.00;77.70
4107;DHT22;21906;50.812;7.132;2023-05-14T02:11:16;11.90;77.70
4107;DHT22;21906;50.812;7.132;2023-05-14T02:13:42;11.90;77.70
4107;DHT22;21906;50.812;7.132;2023-05-14T02:16:08;11.90;77.70
4107;DHT22;21906;50.812;7.132;2023-05-14T02:18:33;11.90;77.90
4107;DHT22;21906;50.812;7.132;2023-05-14T02:20:59;11.90;77.90
4107;DHT22;21906;50.812;7.132;2023-05-14T02:23:25;11.90;78.10
4107;DHT22;21906;50.812;7.132;2023-05-14T02:25:50;11.90;77.80
4107;DHT22;21906;50.812;7.132;2023-05-14T02:28:16;11.90;77.70
4107;DHT22;21906;50.812;7.132;2023-05-14T02:30:41;11.80;78.00
4107;DHT22;21906;50.812;7.132;2023-05-14T02:33:07;11.80;77.80
4107;DHT22;21906;50.812;7.132;2023-05-14T02:35:33;11.70;78.10
4107;DHT22;21906;50.812;7.132;2023-05-14T02:37:58;11.60;78.20
4107;DHT22;21906;50.812;7.132;2023-05-14T02:40:24;11.60;78.10
4107;DHT22;21906;50.812;7.132;2023-05-14T02:42:50;11.70;77.90
4107;DHT22;21906;50.812;7.132;2023-05-14T02:45:15;11.60;77.90
4107;DHT22;21906;50.812;7.132;2023-05-14T02:47:41;11.60;78.00
4107;DHT22;21906;50.812;7.132;2023-05-14T02:50:08;11.60;77.90
4107;DHT22;21906;50.812;7.132;2023-05-14T02:52:34;11.60;77.90
4107;DHT22;21906;50.812;7.132;2023-05-14T02:55:01;11.50;77.90
4107;DHT22;21906;50.812;7.132;2023-05-14T02:57:26;11.50;77.90
4107;DHT22;21906;50.812;7.132;2023-05-14T02:59:52;11.50;78.00
4107;DHT22;21906;50.812;7.132;2023-05-14T03:02:17;11.50;78.20
4107;DHT22;21906;50.812;7.132;2023-05-14T03:04:43;11.50;78.00
4107;DHT22;21906;50.812;7.132;2023-05-14T03:07:09;11.40;77.90
4107;DHT22;21906;50.812;7.132;2023-05-14T03:09:34;11.40;77.90
4107;DHT22;21906;50.812;7.132;2023-05-14T03:12:00;11.40;77.90
4107;DHT22;21906;50.812;7.132;2023-05-14T03:14:26;11.40;77.90
4107;DHT22;21906;50.812;7.132;2023-05-14T03:16:51;11.40;77.70
4107;DHT22;21906;50.812;7.132;2023-05-14T03:19:17;11.30;77.80
4107;DHT22;21906;50.812;7.132;2023-05-14T03:21:42;11.30;77.50
4107;DHT22;21906;50.812;7.132;2023-05-14T03:24:08;11.30;77.50
4107;DHT22;21906;50.812;7.132;2023-05-14T03:26:34;11.20;77.60
4107;DHT22;21906;50.812;7.132;2023-05-14T03:28:59;11.20;77.80
4107;DHT22;21906;50.812;7.132;2023-05-14T03:31:25;11.20;78.00
4107;DHT22;21906;50.812;7.132;2023-05-14T03:33:51;11.20;77.80
4107;DHT22;21906;50.812;7.132;2023-05-14T03:36:16;11.20;77.90
4107;DHT22;21906;50.812;7.132;2023-05-14T03:38:42;11.20;77.90
4107;DHT22;21906;50.812;7.132;2023-05-14T03:41:07;11.10;78.00
4107;DHT22;21906;50.812;7.132;2023-05-14T03:43:33;11.10;78.20
4107;DHT22;21906;50.812;7.132;2023-05-14T03:45:59;11.10;78.10
4107;DHT22;21906;50.812;7.132;2023-05-14T03:48:25;11.10;78.00
4107;DHT22;21906;50.812;7.132;2023-05-14T03:50:50;11.10;78.10
4107;DHT22;21906;50.812;7.132;2023-05-14T03:53:16;11.20;78.00
4107;DHT22;21906;50.812;7.132;2023-05-14T03:55:42;11.20;77.90
4107;DHT22;21906;50.812;7.132;2023-05-14T03:58:07;11.20;77.90
4107;DHT22;21906;50.812;7.132;2023-05-14T04:00:42;11.10;78.00
4107;DHT22;21906;50.812;7.132;2023-05-14T04:03:08;11.20;78.20
4107;DHT22;21906;50.812;7.132;2023-05-14T04:05:34;11.10;78.40
4107;DHT22;21906;50.812;7.132;2023-05-14T04:08:00;11.20;78.10
4107;DHT22;21906;50.812;7.132;2023-05-14T04:10:26;11.20;78.10
4107;DHT22;21906;50.812;7.132;2023-05-14T04:12:52;11.20;77.80
4107;DHT22;21906;50.812;7.132;2023-05-14T04:15:17;11.10;77.60
4107;DHT22;21906;50.812;7.132;2023-05-14T04:17:43;11.20;77.50
4107;DHT22;21906;50.812;7.132;2023-05-14T04:20:09;11.20;77.60
4107;DHT22;21906;50.812;7.132;2023-05-14T04:22:35;11.20;77.80
4107;DHT22;21906;50.812;7.132;2023-05-14T04:25:00;11.20;77.90
4107;DHT22;21906;50.812;7.132;2023-05-14T04:27:27;11.20;77.70
4107;DHT22;21906;50.812;7.132;2023-05-14T04:29:53;11.20;77.60
4107;DHT22;21906;50.812;7.132;2023-05-14T04:32:18;11.20;77.50
4107;DHT22;21906;50.812;7.132;2023-05-14T04:34:44;11.20;77.50
4107;DHT22;21906;50.812;7.132;2023-05-14T04:37:11;11.20;77.60
4107;DHT22;21906;50.812;7.132;2023-05-14T04:39:37;11.20;77.70
4107;DHT22;21906;50.812;7.132;2023-05-14T04:42:03;11.20;77.60
4107;DHT22;21906;50.812;7.132;2023-05-14T04:44:29;11.30;77.60
4107;DHT22;21906;50.812;7.132;2023-05-14T04:46:55;11.30;77.50
4107;DHT22;21906;50.812;7.132;2023-05-14T04:49:21;11.30;77.60
4107;DHT22;21906;50.812;7.132;2023-05-14T04:51:47;11.20;77.60
4107;DHT22;21906;50.812;7.132;2023-05-14T04:54:12;11.30;77.60
4107;DHT22;21906;50.812;7.132;2023-05-14T04:56:38;11.30;77.80
4107;DHT22;21906;50.812;7.132;2023-05-14T04:59:04;11.40;77.60
4107;DHT22;21906;50.812;7.132;2023-05-14T05:01:29;11.40;77.60
4107;DHT22;21906;50.812;7.132;2023-05-14T05:03:55;11.40;77.50
4107;DHT22;21906;50.812;7.132;2023-05-14T05:06:22;11.40;77.40
4107;DHT22;21906;50.812;7.132;2023-05-14T05:08:47;11.30;77.90
4107;DHT22;21906;50.812;7.132;2023-05-14T05:11:13;11.30;78.20
4107;DHT22;21906;50.812;7.132;2023-05-14T05:13:39;11.40;78.10
4107;DHT22;21906;50.812;7.132;2023-05-14T05:16:05;11.40;78.10
4107;DHT22;21906;50.812;7.132;2023-05-14T05:18:30;11.50;78.10
4107;DHT22;21906;50.812;7.132;2023-05-14T05:20:56;11.60;77.80
4107;DHT22;21906;50.812;7.132;2023-05-14T05:23:22;11.70;77.60
4107;DHT22;21906;50.812;7.132;2023-05-14T05:25:48;11.70;77.40
4107;DHT22;21906;50.812;7.132;2023-05-14T05:28:14;11.80;77.30
4107;DHT22;21906;50.812;7.132;2023-05-14T05:30:40;11.90;77.30
4107;DHT22;21906;50.812;7.132;2023-05-14T05:33:06;11.90;77.20
4107;DHT22;21906;50.812;7.132;2023-05-14T05:35:32;12.00;77.10
4107;DHT22;21906;50.812;7.132;2023-05-14T05:37:57;12.00;76.80
4107;DHT22;21906;50.812;7.132;2023-05-14T05:40:23;12.10;76.90
4107;DHT22;21906;50.812;7.132;2023-05-14T05:42:49;12.10;77.10
4107;DHT22;21906;50.812;7.132;2023-05-14T05:45:14;12.10;77.10
4107;DHT22;21906;50.812;7.132;2023-05-14T05:47:40;12.00;77.20
4107;DHT22;21906;50.812;7.132;2023-05-14T05:50:06;12.10;77.20
4107;DHT22;21906;50.812;7.132;2023-05-14T05:52:32;12.20;77.20
4107;DHT22;21906;50.812;7.132;2023-05-14T05:54:57;12.20;77.30
4107;DHT22;21906;50.812;7.132;2023-05-14T05:57:23;12.30;77.40
4107;DHT22;21906;50.812;7.132;2023-05-14T05:59:51;12.40;77.40
4107;DHT22;21906;50.812;7.132;2023-05-14T06:02:18;12.40;77.50
4107;DHT22;21906;50.812;7.132;2023-05-14T06:04:43;12.50;77.40
4107;DHT22;21906;50.812;7.132;2023-05-14T06:07:09;12.60;77.20
4107;DHT22;21906;50.812;7.132;2023-05-14T06:09:35;12.60;77.10
4107;DHT22;21906;50.812;7.132;2023-05-14T06:12:00;12.70;77.10
4107;DHT22;21906;50.812;7.132;2023-05-14T06:14:26;12.60;77.10
4107;DHT22;21906;50.812;7.132;2023-05-14T06:16:51;12.70;77.50
4107;DHT22;21906;50.812;7.132;2023-05-14T06:19:17;12.70;77.90
4107;DHT22;21906;50.812;7.132;2023-05-14T06:21:43;12.70;78.20
4107;DHT22;21906;50.812;7.132;2023-05-14T06:24:09;12.80;78.40
4107;DHT22;21906;50.812;7.132;2023-05-14T06:26:34;12.90;77.90
4107;DHT22;21906;50.812;7.132;2023-05-14T06:29:00;13.00;77.70
4107;DHT22;21906;50.812;7.132;2023-05-14T06:31:26;13.20;77.40
4107;DHT22;21906;50.812;7.132;2023-05-14T06:33:51;13.30;77.10
4107;DHT22;21906;50.812;7.132;2023-05-14T06:36:17;13.40;76.80
4107;DHT22;21906;50.812;7.132;2023-05-14T06:38:43;13.40;76.80
4107;DHT22;21906;50.812;7.132;2023-05-14T06:41:08;13.40;76.70
4107;DHT22;21906;50.812;7.132;2023-05-14T06:43:34;13.50;76.70
4107;DHT22;21906;50.812;7.132;2023-05-14T06:45:59;13.50;76.50
4107;DHT22;21906;50.812;7.132;2023-05-14T06:48:25;13.60;76.60
4107;DHT22;21906;50.812;7.132;2023-05-14T06:50:53;13.70;76.60
4107;DHT22;21906;50.812;7.132;2023-05-14T06:53:19;13.60;75.30
4107;DHT22;21906;50.812;7.132;2023-05-14T06:55:47;13.50;75.60
4107;DHT22;21906;50.812;7.132;2023-05-14T06:58:12;13.60;75.80
4107;DHT22;21906;50.812;7.132;2023-05-14T07:00:38;13.60;75.90
4107;DHT22;21906;50.812;7.132;2023-05-14T07:03:04;13.80;76.10
4107;DHT22;21906;50.812;7.132;2023-05-14T07:05:30;13.80;76.00
4107;DHT22;21906;50.812;7.132;2023-05-14T07:07:56;13.90;75.70
4107;DHT22;21906;50.812;7.132;2023-05-14T07:10:22;14.00;75.70
4107;DHT22;21906;50.812;7.132;2023-05-14T07:12:48;14.00;75.50
4107;DHT22;21906;50.812;7.132;2023-05-14T07:15:14;14.20;75.40
4107;DHT22;21906;50.812;7.132;2023-05-14T07:17:40;14.30;75.20
4107;DHT22;21906;50.812;7.132;2023-05-14T07:20:06;14.20;74.00
4107;DHT22;21906;50.812;7.132;2023-05-14T07:22:31;14.30;74.60
4107;DHT22;21906;50.812;7.132;2023-05-14T07:24:57;14.40;74.80
4107;DHT22;21906;50.812;7.132;2023-05-14T07:27:23;14.60;74.80
4107;DHT22;21906;50.812;7.132;2023-05-14T07:29:49;14.50;74.40
4107;DHT22;21906;50.812;7.132;2023-05-14T07:32:15;14.40;74.20
4107;DHT22;21906;50.812;7.132;2023-05-14T07:34:40;14.50;74.60
4107;DHT22;21906;50.812;7.132;2023-05-14T07:37:06;14.70;74.30
4107;DHT22;21906;50.812;7.132;2023-05-14T07:39:32;14.70;73.90
4107;DHT22;21906;50.812;7.132;2023-05-14T07:41:59;14.90;74.10
4107;DHT22;21906;50.812;7.132;2023-05-14T07:44:24;14.90;73.60
4107;DHT22;21906;50.812;7.132;2023-05-14T07:46:50;15.00;73.50
4107;DHT22;21906;50.812;7.132;2023-05-14T07:49:16;15.10;73.50
4107;DHT22;21906;50.812;7.132;2023-05-14T07:51:41;15.20;73.10
4107;DHT22;21906;50.812;7.132;2023-05-14T07:54:07;15.30;73.90
4107;DHT22;21906;50.812;7.132;2023-05-14T07:56:33;15.40;73.10
4107;DHT22;21906;50.812;7.132;2023-05-14T07:58:58;15.50;72.20
4107;DHT22;21906;50.812;7.132;2023-05-14T08:01:24;15.50;71.60
4107;DHT22;21906;50.812;7.132;2023-05-14T08:03:50;15.60;70.60
4107;DHT22;21906;50.812;7.132;2023-05-14T08:06:16;15.70;70.60
4107;DHT22;21906;50.812;7.132;2023-05-14T08:08:42;15.80;69.10
4107;DHT22;21906;50.812;7.132;2023-05-14T08:11:07;15.80;68.00
4107;DHT22;21906;50.812;7.132;2023-05-14T08:13:33;15.90;68.60
4107;DHT22;21906;50.812;7.132;2023-05-14T08:15:58;16.00;68.70
4107;DHT22;21906;50.812;7.132;2023-05-14T08:18:24;16.20;68.90
4107;DHT22;21906;50.812;7.132;2023-05-14T08:20:50;16.30;69.00
4107;DHT22;21906;50.812;7.132;2023-05-14T08:23:16;16.40;68.30
4107;DHT22;21906;50.812;7.132;2023-05-14T08:25:41;16.50;67.60
4107;DHT22;21906;50.812;7.132;2023-05-14T08:28:07;16.50;67.50
4107;DHT22;21906;50.812;7.132;2023-05-14T08:30:33;16.60;66.40
4107;DHT22;21906;50.812;7.132;2023-05-14T08:32:58;16.70;65.30
4107;DHT22;21906;50.812;7.132;2023-05-14T08:35:24;16.70;64.60
4107;DHT22;21906;50.812;7.132;2023-05-14T08:37:50;16.80;64.80
4107;DHT22;21906;50.812;7.132;2023-05-14T08:40:17;16.90;66.00
4107;DHT22;21906;50.812;7.132;2023-05-14T08:42:43;16.90;64.90
4107;DHT22;21906;50.812;7.132;2023-05-14T08:47:35;17.00;65.80
4107;DHT22;21906;50.812;7.132;2023-05-14T08:50:03;17.10;66.10
4107;DHT22;21906;50.812;7.132;2023-05-14T08:52:29;17.20;66.40
4107;DHT22;21906;50.812;7.132;2023-05-14T08:54:56;17.40;66.20
4107;DHT22;21906;50.812;7.132;2023-05-14T08:57:24;17.30;65.00
4107;DHT22;21906;50.812;7.132;2023-05-14T08:59:54;17.40;64.90
4107;DHT22;21906;50.812;7.132;2023-05-14T09:02:22;17.30;63.40
4107;DHT22;21906;50.812;7.132;2023-05-14T09:04:56;17.40;63.30
4107;DHT22;21906;50.812;7.132;2023-05-14T09:07:23;17.50;63.60
4107;DHT22;21906;50.812;7.132;2023-05-14T09:09:49;17.50;63.00
4107;DHT22;21906;50.812;7.132;2023-05-14T09:12:15;17.70;62.50
4107;DHT22;21906;50.812;7.132;2023-05-14T09:14:41;17.70;62.40
4107;DHT22;21906;50.812;7.132;2023-05-14T09:17:07;17.70;63.10
4107;DHT22;21906;50.812;7.132;2023-05-14T09:19:33;17.70;63.00
4107;DHT22;21906;50.812;7.132;2023-05-14T09:21:59;17.80;64.10
4107;DHT22;21906;50.812;7.132;2023-05-14T09:24:26;17.90;64.20
4107;DHT22;21906;50.812;7.132;2023-05-14T09:26:56;18.00;63.90
4107;DHT22;21906;50.812;7.132;2023-05-14T09:29:27;17.90;61.00
4107;DHT22;21906;50.812;7.132;2023-05-14T09:31:54;18.00;61.20
4107;DHT22;21906;50.812;7.132;2023-05-14T09:34:24;18.20;61.40
4107;DHT22;21906;50.812;7.132;2023-05-14T09:36:57;18.20;61.40
4107;DHT22;21906;50.812;7.132;2023-05-14T09:39:23;18.40;61.30
4107;DHT22;21906;50.812;7.132;2023-05-14T09:41:49;18.40;62.40
4107;DHT22;21906;50.812;7.132;2023-05-14T09:44:16;18.50;62.90
4107;DHT22;21906;50.812;7.132;2023-05-14T09:46:42;18.70;60.40
4107;DHT22;21906;50.812;7.132;2023-05-14T09:49:08;18.80;59.30
4107;DHT22;21906;50.812;7.132;2023-05-14T09:51:36;18.90;60.30
4107;DHT22;21906;50.812;7.132;2023-05-14T09:54:04;18.90;61.10
4107;DHT22;21906;50.812;7.132;2023-05-14T09:56:31;19.00;58.30
4107;DHT22;21906;50.812;7.132;2023-05-14T09:58:57;19.00;59.60
4107;DHT22;21906;50.812;7.132;2023-05-14T10:01:24;19.00;60.20
4107;DHT22;21906;50.812;7.132;2023-05-14T10:03:50;19.00;60.90
4107;DHT22;21906;50.812;7.132;2023-05-14T10:06:18;19.10;60.70
4107;DHT22;21906;50.812;7.132;2023-05-14T10:08:48;19.20;61.70
4107;DHT22;21906;50.812;7.132;2023-05-14T10:11:23;19.30;59.40
4107;DHT22;21906;50.812;7.132;2023-05-14T10:16:33;19.40;61.10
4107;DHT22;21906;50.812;7.132;2023-05-14T10:19:10;19.70;57.30
4107;DHT22;21906;50.812;7.132;2023-05-14T10:21:39;19.80;59.50
4107;DHT22;21906;50.812;7.132;2023-05-14T10:24:06;19.80;58.40
4107;DHT22;21906;50.812;7.132;2023-05-14T10:26:35;19.80;56.60
4107;DHT22;21906;50.812;7.132;2023-05-14T10:29:08;19.70;56.90
4107;DHT22;21906;50.812;7.132;2023-05-14T10:34:33;19.50;57.80
4107;DHT22;21906;50.812;7.132;2023-05-14T10:37:06;19.40;56.10
4107;DHT22;21906;50.812;7.132;2023-05-14T10:39:57;19.40;55.30
4107;DHT22;21906;50.812;7.132;2023-05-14T10:42:31;19.40;55.40
4107;DHT22;21906;50.812;7.132;2023-05-14T10:44:59;19.20;55.30
4107;DHT22;21906;50.812;7.132;2023-05-14T10:47:29;19.10;56.30
4107;DHT22;21906;50.812;7.132;2023-05-14T10:49:57;19.10;56.40
4107;DHT22;21906;50.812;7.132;2023-05-14T10:52:23;19.30;56.00
4107;DHT22;21906;50.812;7.132;2023-05-14T10:57:20;19.40;55.30
4107;DHT22;21906;50.812;7.132;2023-05-14T10:59:48;19.50;56.50
4107;DHT22;21906;50.812;7.132;2023-05-14T11:02:25;19.60;57.00
4107;DHT22;21906;50.812;7.132;2023-05-14T11:07:28;19.60;56.30
4107;DHT22;21906;50.812;7.132;2023-05-14T11:10:02;19.60;56.10
4107;DHT22;21906;50.812;7.132;2023-05-14T11:12:29;19.40;57.60
4107;DHT22;21906;50.812;7.132;2023-05-14T11:14:59;19.40;57.10
4107;DHT22;21906;50.812;7.132;2023-05-14T11:17:29;19.20;57.50
4107;DHT22;21906;50.812;7.132;2023-05-14T11:19:55;19.10;57.60
4107;DHT22;21906;50.812;7.132;2023-05-14T11:22:21;19.10;58.40
4107;DHT22;21906;50.812;7.132;2023-05-14T11:24:47;19.10;59.30
4107;DHT22;21906;50.812;7.132;2023-05-14T11:27:13;18.90;57.80
4107;DHT22;21906;50.812;7.132;2023-05-14T11:29:43;18.90;58.30
4107;DHT22;21906;50.812;7.132;2023-05-14T11:32:09;18.90;57.00
4107;DHT22;21906;50.812;7.132;2023-05-14T11:34:35;18.90;56.90
4107;DHT22;21906;50.812;7.132;2023-05-14T11:37:02;18.90;55.90
4107;DHT22;21906;50.812;7.132;2023-05-14T11:39:32;19.00;56.40
4107;DHT22;21906;50.812;7.132;2023-05-14T11:42:01;19.10;56.60
4107;DHT22;21906;50.812;7.132;2023-05-14T11:44:27;19.20;55.20
4107;DHT22;21906;50.812;7.132;2023-05-14T11:46:54;19.20;56.00
4107;DHT22;21906;50.812;7.132;2023-05-14T11:49:21;19.40;55.70
4107;DHT22;21906;50.812;7.132;2023-05-14T11:51:48;19.40;55.90
4107;DHT22;21906;50.812;7.132;2023-05-14T11:54:13;19.50;54.00
4107;DHT22;21906;50.812;7.132;2023-05-14T11:56:39;19.60;54.50
4107;DHT22;21906;50.812;7.132;2023-05-14T11:59:05;19.70;54.10
4107;DHT22;21906;50.812;7.132;2023-05-14T12:01:36;19.90;54.00
4107;DHT22;21906;50.812;7.132;2023-05-14T12:04:03;19.90;53.00
4107;DHT22;21906;50.812;7.132;2023-05-14T12:06:31;19.90;52.10
4107;DHT22;21906;50.812;7.132;2023-05-14T12:08:57;19.90;51.70
4107;DHT22;21906;50.812;7.132;2023-05-14T12:11:23;20.00;53.20
4107;DHT22;21906;50.812;7.132;2023-05-14T12:13:48;20.00;51.40
4107;DHT22;21906;50.812;7.132;2023-05-14T12:16:14;20.00;52.30
4107;DHT22;21906;50.812;7.132;2023-05-14T12:18:41;20.10;52.00
4107;DHT22;21906;50.812;7.132;2023-05-14T12:21:07;20.30;52.00
4107;DHT22;21906;50.812;7.132;2023-05-14T12:23:33;20.40;50.20
4107;DHT22;21906;50.812;7.132;2023-05-14T12:26:04;20.50;51.00
4107;DHT22;21906;50.812;7.132;2023-05-14T12:28:31;20.70;51.40
4107;DHT22;21906;50.812;7.132;2023-05-14T12:30:58;20.90;51.50
4107;DHT22;21906;50.812;7.132;2023-05-14T12:33:25;21.20;51.40
4107;DHT22;21906;50.812;7.132;2023-05-14T12:35:54;21.60;53.00
4107;DHT22;21906;50.812;7.132;2023-05-14T12:38:26;21.90;53.60
4107;DHT22;21906;50.812;7.132;2023-05-14T12:40:52;22.20;52.80
4107;DHT22;21906;50.812;7.132;2023-05-14T12:43:18;22.50;47.70
4107;DHT22;21906;50.812;7.132;2023-05-14T12:45:44;22.50;46.60
4107;DHT22;21906;50.812;7.132;2023-05-14T12:48:10;22.40;47.00
4107;DHT22;21906;50.812;7.132;2023-05-14T12:50:35;22.40;45.90
4107;DHT22;21906;50.812;7.132;2023-05-14T12:53:01;22.40;47.90
4107;DHT22;21906;50.812;7.132;2023-05-14T12:55:26;22.40;48.70
4107;DHT22;21906;50.812;7.132;2023-05-14T12:57:53;22.50;49.10
4107;DHT22;21906;50.812;7.132;2023-05-14T13:00:19;22.70;44.00
4107;DHT22;21906;50.812;7.132;2023-05-14T13:02:44;22.70;45.00
4107;DHT22;21906;50.812;7.132;2023-05-14T13:05:10;22.50;45.20
4107;DHT22;21906;50.812;7.132;2023-05-14T13:07:37;22.40;47.20
4107;DHT22;21906;50.812;7.132;2023-05-14T13:10:03;22.30;44.30
4107;DHT22;21906;50.812;7.132;2023-05-14T13:12:30;22.20;45.40
4107;DHT22;21906;50.812;7.132;2023-05-14T13:14:55;22.20;46.70
4107;DHT22;21906;50.812;7.132;2023-05-14T13:17:21;22.30;46.20
4107;DHT22;21906;50.812;7.132;2023-05-14T13:19:47;22.30;43.60
4107;DHT22;21906;50.812;7.132;2023-05-14T13:22:12;22.50;43.30
4107;DHT22;21906;50.812;7.132;2023-05-14T13:24:38;22.50;44.20
4107;DHT22;21906;50.812;7.132;2023-05-14T13:27:04;22.30;44.90
4107;DHT22;21906;50.812;7.132;2023-05-14T13:29:30;21.90;45.10
4107;DHT22;21906;50.812;7.132;2023-05-14T13:31:56;21.70;43.50
4107;DHT22;21906;50.812;7.132;2023-05-14T13:34:21;21.50;41.90
4107;DHT22;21906;50.812;7.132;2023-05-14T13:36:47;21.50;42.40
4107;DHT22;21906;50.812;7.132;2023-05-14T13:39:14;21.50;47.20
4107;DHT22;21906;50.812;7.132;2023-05-14T13:41:39;21.60;47.70
4107;DHT22;21906;50.812;7.132;2023-05-14T13:44:05;21.70;47.10
4107;DHT22;21906;50.812;7.132;2023-05-14T13:46:31;21.80;46.70
4107;DHT22;21906;50.812;7.132;2023-05-14T13:48:57;21.90;45.80
4107;DHT22;21906;50.812;7.132;2023-05-14T13:51:22;21.90;45.30
4107;DHT22;21906;50.812;7.132;2023-05-14T13:53:48;21.90;43.80
4107;DHT22;21906;50.812;7.132;2023-05-14T13:56:14;21.90;43.00
4107;DHT22;21906;50.812;7.132;2023-05-14T13:58:39;22.10;45.20
4107;DHT22;21906;50.812;7.132;2023-05-14T14:01:05;22.30;48.80
4107;DHT22;21906;50.812;7.132;2023-05-14T14:03:31;22.50;44.00
4107;DHT22;21906;50.812;7.132;2023-05-14T14:05:56;22.60;42.20
4107;DHT22;21906;50.812;7.132;2023-05-14T14:08:22;22.40;43.00
4107;DHT22;21906;50.812;7.132;2023-05-14T14:10:47;22.40;43.90
4107;DHT22;21906;50.812;7.132;2023-05-14T14:13:13;22.30;44.70
4107;DHT22;21906;50.812;7.132;2023-05-14T14:15:39;22.20;42.80
4107;DHT22;21906;50.812;7.132;2023-05-14T14:18:04;22.30;44.70
4107;DHT22;21906;50.812;7.132;2023-05-14T14:20:31;22.40;44.80
4107;DHT22;21906;50.812;7.132;2023-05-14T14:22:57;22.40;43.80
4107;DHT22;21906;50.812;7.132;2023-05-14T14:25:23;22.40;46.10
4107;DHT22;21906;50.812;7.132;2023-05-14T14:27:48;22.90;46.70
4107;DHT22;21906;50.812;7.132;2023-05-14T14:30:15;23.20;42.10
4107;DHT22;21906;50.812;7.132;2023-05-14T14:32:45;23.70;42.50
4107;DHT22;21906;50.812;7.132;2023-05-14T14:35:12;24.60;43.00
4107;DHT22;21906;50.812;7.132;2023-05-14T14:37:39;25.20;40.80
4107;DHT22;21906;50.812;7.132;2023-05-14T14:40:07;25.70;38.20
4107;DHT22;21906;50.812;7.132;2023-05-14T14:42:34;25.70;38.00
4107;DHT22;21906;50.812;7.132;2023-05-14T14:45:00;25.30;35.80
4107;DHT22;21906;50.812;7.132;2023-05-14T14:47:26;24.90;38.40
4107;DHT22;21906;50.812;7.132;2023-05-14T14:49:52;24.40;36.40
4107;DHT22;21906;50.812;7.132;2023-05-14T14:52:17;23.80;38.70
4107;DHT22;21906;50.812;7.132;2023-05-14T14:54:43;23.50;38.90
4107;DHT22;21906;50.812;7.132;2023-05-14T14:57:08;23.70;54.60
4107;DHT22;21906;50.812;7.132;2023-05-14T14:59:34;23.60;42.70
4107;DHT22;21906;50.812;7.132;2023-05-14T15:02:00;23.90;46.80
4107;DHT22;21906;50.812;7.132;2023-05-14T15:04:26;24.40;49.50
4107;DHT22;21906;50.812;7.132;2023-05-14T15:06:52;25.10;48.20
4107;DHT22;21906;50.812;7.132;2023-05-14T15:09:17;25.40;38.40
4107;DHT22;21906;50.812;7.132;2023-05-14T15:11:43;25.90;40.10
4107;DHT22;21906;50.812;7.132;2023-05-14T15:14:09;25.70;42.40
4107;DHT22;21906;50.812;7.132;2023-05-14T15:16:35;25.70;37.90
4107;DHT22;21906;50.812;7.132;2023-05-14T15:19:00;26.00;36.10
4107;DHT22;21906;50.812;7.132;2023-05-14T15:21:26;25.70;45.40
4107;DHT22;21906;50.812;7.132;2023-05-14T15:23:52;25.90;39.90
4107;DHT22;21906;50.812;7.132;2023-05-14T15:26:17;26.70;33.70
4107;DHT22;21906;50.812;7.132;2023-05-14T15:28:43;27.80;38.30
4107;DHT22;21906;50.812;7.132;2023-05-14T15:31:09;28.50;37.30
4107;DHT22;21906;50.812;7.132;2023-05-14T15:33:34;28.00;40.00
4107;DHT22;21906;50.812;7.132;2023-05-14T15:36:00;26.90;41.00
4107;DHT22;21906;50.812;7.132;2023-05-14T15:38:26;25.60;43.70
4107;DHT22;21906;50.812;7.132;2023-05-14T15:40:51;24.50;47.00
4107;DHT22;21906;50.812;7.132;2023-05-14T15:43:17;23.80;47.20
4107;DHT22;21906;50.812;7.132;2023-05-14T15:45:46;23.30;42.40
4107;DHT22;21906;50.812;7.132;2023-05-14T15:48:11;22.90;42.70
4107;DHT22;21906;50.812;7.132;2023-05-14T15:50:37;22.60;42.50
4107;DHT22;21906;50.812;7.132;2023-05-14T15:53:02;22.20;42.90
4107;DHT22;21906;50.812;7.132;2023-05-14T15:55:28;22.00;43.50
4107;DHT22;21906;50.812;7.132;2023-05-14T15:57:54;21.90;43.20
4107;DHT22;21906;50.812;7.132;2023-05-14T16:00:20;22.30;43.20